Time;durP1;ratioP1;P1;durP2;ratioP2;P2;SDS_P1;SDS_P2;PMS_P1;PMS_P2;Temp;Humidity;BMP_temperature;BMP_pressure;BME280_temperature;BME280_humidity;BME280_pressure;Samples;Min_cycle;Max_cycle;Signal;HPM_P1;HPM_P2
2021/08/01 00:01:28;;;;;;;15.98;11.43;;;;;;;;;;5104036;27;20043;-68
2021/08/01 00:03:54;;;;;;;13.13;11.40;;;;;;;;;;5108840;28;20120;-68
2021/08/01 00:06:20;;;;;;;15.05;11.45;;;;;;;;;;5108425;28;20070;-68
2021/08/01 00:08:46;;;;;;;12.57;9.95;;;;;;;;;;5106307;28;20044;-68
2021/08/01 00:11:12;;;;;;;13.30;11.20;;;;;;;;;;5109548;28;20042;-68
2021/08/01 00:13:39;;;;;;;14.75;11.63;;;;;;;;;;5098836;28;20042;-68
2021/08/01 00:16:05;;;;;;;17.17;11.40;;;;;;;;;;5113214;28;20051;-68
2021/08/01 00:18:31;;;;;;;15.55;11.02;;;;;;;;;;5108842;27;20039;-68
2021/08/01 00:20:57;;;;;;;15.45;12.18;;;;;;;;;;5107384;27;20385;-68
2021/08/01 00:23:23;;;;;;;14.98;11.40;;;;;;;;;;5104590;27;20340;-68
2021/08/01 00:25:50;;;;;;;16.67;11.85;;;;;;;;;;5101911;28;20560;-68
2021/08/01 00:28:16;;;;;;;13.35;11.82;;;;;;;;;;5102251;27;20534;-68
2021/08/01 00:30:42;;;;;;;16.85;12.05;;;;;;;;;;5109502;27;20662;-67
2021/08/01 00:33:08;;;;;;;17.08;11.63;;;;;;;;;;5105944;27;20094;-67
2021/08/01 00:35:34;;;;;;;19.10;12.73;;;;;;;;;;5116512;27;20515;-67
2021/08/01 00:38:01;;;;;;;16.30;11.77;;;;;;;;;;5103363;27;20480;-67
2021/08/01 00:40:27;;;;;;;15.10;10.52;;;;;;;;;;5113475;27;20328;-67
2021/08/01 00:42:53;;;;;;;15.05;12.07;;;;;;;;;;5109790;27;20036;-67
2021/08/01 00:45:19;;;;;;;18.48;11.63;;;;;;;;;;5115514;27;20103;-67
2021/08/01 00:47:46;;;;;;;14.50;10.73;;;;;;;;;;5114048;27;20042;-67
2021/08/01 00:50:13;;;;;;;15.60;10.43;;;;;;;;;;5111565;27;20480;-67
2021/08/01 00:52:40;;;;;;;15.68;11.48;;;;;;;;;;5116999;27;20043;-67
2021/08/01 00:55:07;;;;;;;17.08;11.93;;;;;;;;;;5108840;27;20092;-67
2021/08/01 00:57:34;;;;;;;12.82;10.48;;;;;;;;;;5109456;27;20141;-68
2021/08/01 01:00:00;;;;;;;21.27;13.32;;;;;;;;;;5104583;27;20549;-68
2021/08/01 01:02:47;;;;;;;15.35;12.00;;;;;;;;;;5117264;27;20483;-68
2021/08/01 01:05:27;;;;;;;14.02;12.02;;;;;;;;;;5104088;27;20117;-68
2021/08/01 01:07:59;;;;;;;14.30;11.85;;;;;;;;;;5104757;27;20035;-68
2021/08/01 01:10:33;;;;;;;17.77;12.80;;;;;;;;;;5110800;27;20047;-68
2021/08/01 01:13:11;;;;;;;15.38;11.63;;;;;;;;;;5118928;27;20479;-68
2021/08/01 01:15:57;;;;;;;17.83;12.93;;;;;;;;;;5085738;28;20067;-68
2021/08/01 01:18:26;;;;;;;14.68;11.95;;;;;;;;;;5108555;27;20040;-68
2021/08/01 01:20:55;;;;;;;15.82;11.85;;;;;;;;;;5101927;27;20487;-68
2021/08/01 01:23:25;;;;;;;16.30;12.68;;;;;;;;;;5113407;27;20047;-68
2021/08/01 01:26:00;;;;;;;19.80;13.38;;;;;;;;;;5104756;27;20050;-68
2021/08/01 01:28:26;;;;;;;;;;;;;;;;;;5110391;27;20051;-68
2021/08/01 01:30:59;;;;;;;19.80;13.93;;;;;;;;;;5112932;27;19927;-67
2021/08/01 01:33:27;;;;;;;16.63;13.68;;;;;;;;;;5111243;27;20472;-67
2021/08/01 01:35:55;;;;;;;20.40;16.25;;;;;;;;;;5106903;27;20031;-67
2021/08/01 01:38:22;;;;;;;22.55;15.90;;;;;;;;;;5104848;27;20471;-67
2021/08/01 01:40:53;;;;;;;19.55;14.88;;;;;;;;;;5092503;28;20063;-67
2021/08/01 01:43:22;;;;;;;19.27;14.93;;;;;;;;;;5113017;27;20077;-67
2021/08/01 01:45:48;;;;;;;16.77;14.52;;;;;;;;;;5100874;27;20039;-67
2021/08/01 01:48:14;;;;;;;18.70;15.10;;;;;;;;;;5114756;27;20050;-68
2021/08/01 01:50:40;;;;;;;18.55;15.20;;;;;;;;;;5102320;27;20060;-68
2021/08/01 01:53:07;;;;;;;17.58;15.88;;;;;;;;;;5112930;27;20507;-68
2021/08/01 01:55:35;;;;;;;25.25;19.45;;;;;;;;;;5114846;27;20042;-68
2021/08/01 01:58:02;;;;;;;22.48;17.85;;;;;;;;;;5110747;27;20036;-68
2021/08/01 02:00:28;;;;;;;20.02;17.85;;;;;;;;;;5118827;27;20053;-67
2021/08/01 02:02:54;;;;;;;25.85;21.52;;;;;;;;;;5101348;27;20118;-67
2021/08/01 02:05:20;;;;;;;31.27;19.95;;;;;;;;;;5111787;27;20092;-68
2021/08/01 02:07:47;;;;;;;26.58;20.58;;;;;;;;;;5109318;27;20090;-67
2021/08/01 02:10:17;;;;;;;23.35;19.48;;;;;;;;;;5105936;27;20180;-67
2021/08/01 02:12:49;;;;;;;33.85;22.45;;;;;;;;;;5103364;27;20043;-67
2021/08/01 02:15:17;;;;;;;23.50;18.23;;;;;;;;;;5113098;27;20040;-67
2021/08/01 02:18:03;;;;;;;33.38;22.58;;;;;;;;;;5103941;27;20537;-67
2021/08/01 02:20:44;;;;;;;27.23;20.65;;;;;;;;;;5109437;27;20039;-67
2021/08/01 02:23:12;;;;;;;33.50;24.17;;;;;;;;;;5099643;27;20043;-67
2021/08/01 02:25:38;;;;;;;51.53;26.05;;;;;;;;;;5111633;27;20027;-67
2021/08/01 02:28:08;;;;;;;30.70;22.65;;;;;;;;;;5105655;27;20051;-67
2021/08/01 02:30:35;;;;;;;43.03;26.90;;;;;;;;;;5110661;27;20721;-67
2021/08/01 02:33:02;;;;;;;41.80;26.15;;;;;;;;;;5107398;27;20046;-67
2021/08/01 02:35:29;;;;;;;28.13;22.42;;;;;;;;;;5112421;27;20123;-67
2021/08/01 02:37:57;;;;;;;28.70;22.98;;;;;;;;;;5108288;27;20487;-67
2021/08/01 02:40:24;;;;;;;30.38;22.70;;;;;;;;;;5109939;27;20114;-67
2021/08/01 02:42:51;;;;;;;32.78;22.30;;;;;;;;;;5108009;27;20054;-67
2021/08/01 02:45:18;;;;;;;32.08;23.35;;;;;;;;;;5116491;27;20058;-67
2021/08/01 02:47:45;;;;;;;30.95;22.13;;;;;;;;;;5107177;27;20039;-67
2021/08/01 02:50:11;;;;;;;33.72;23.20;;;;;;;;;;5106653;27;20039;-67
2021/08/01 02:53:07;;;;;;;35.05;24.10;;;;;;;;;;5116023;27;20483;-67
2021/08/01 02:55:35;;;;;;;39.80;25.48;;;;;;;;;;5085986;27;20078;-67
2021/08/01 02:58:01;;;;;;;45.20;27.13;;;;;;;;;;5111580;27;20071;-67
2021/08/01 03:00:29;;;;;;;38.15;24.58;;;;;;;;;;5101366;27;20063;-67
2021/08/01 03:02:56;;;;;;;39.15;25.35;;;;;;;;;;5113429;27;20058;-67
2021/08/01 03:05:22;;;;;;;32.35;24.58;;;;;;;;;;5107912;27;20082;-67
2021/08/01 03:07:49;;;;;;;30.75;24.08;;;;;;;;;;5111804;27;20028;-67
2021/08/01 03:10:16;;;;;;;32.30;24.75;;;;;;;;;;5101280;27;20088;-67
2021/08/01 03:12:43;;;;;;;36.15;26.02;;;;;;;;;;5115021;27;20035;-67
2021/08/01 03:15:09;;;;;;;39.05;27.98;;;;;;;;;;5106392;27;20084;-67
2021/08/01 03:17:36;;;;;;;32.85;26.73;;;;;;;;;;5108978;27;20149;-67
2021/08/01 03:20:02;;;;;;;48.67;30.95;;;;;;;;;;5099510;27;20055;-67
2021/08/01 03:22:28;;;;;;;40.03;28.70;;;;;;;;;;5116330;27;20031;-67
2021/08/01 03:24:54;;;;;;;41.53;29.13;;;;;;;;;;5098581;27;20088;-67
2021/08/01 03:27:20;;;;;;;45.92;29.50;;;;;;;;;;5109021;27;20072;-67
2021/08/01 03:29:46;;;;;;;40.28;30.45;;;;;;;;;;5104176;27;20092;-67
2021/08/01 03:32:13;;;;;;;44.35;29.10;;;;;;;;;;5119885;27;20115;-67
2021/08/01 03:34:39;;;;;;;48.05;30.77;;;;;;;;;;5099650;27;20040;-67
2021/08/01 03:37:05;;;;;;;39.90;29.90;;;;;;;;;;5105972;27;20048;-67
2021/08/01 03:39:34;;;;;;;40.65;29.02;;;;;;;;;;5106861;27;20051;-67
2021/08/01 03:42:03;;;;;;;52.15;32.90;;;;;;;;;;5102845;27;20491;-67
2021/08/01 03:44:30;;;;;;;47.30;31.75;;;;;;;;;;5106953;27;20050;-67
2021/08/01 03:47:04;;;;;;;47.75;31.17;;;;;;;;;;5106171;27;20035;-67
2021/08/01 03:49:33;;;;;;;42.15;30.33;;;;;;;;;;5096328;27;20050;-67
2021/08/01 03:51:59;;;;;;;50.67;32.35;;;;;;;;;;5098508;28;20121;-67
2021/08/01 03:54:25;;;;;;;41.47;28.23;;;;;;;;;;5110905;27;20050;-67
2021/08/01 03:56:52;;;;;;;50.63;31.20;;;;;;;;;;5101536;27;20040;-68
2021/08/01 03:59:18;;;;;;;54.20;32.22;;;;;;;;;;5111551;27;20047;-68
2021/08/01 04:01:45;;;;;;;41.83;29.35;;;;;;;;;;5103257;27;20443;-68
2021/08/01 04:04:11;;;;;;;54.97;31.75;;;;;;;;;;5106631;27;20035;-68
2021/08/01 04:06:37;;;;;;;39.95;28.65;;;;;;;;;;5107666;28;20047;-68
2021/08/01 04:09:04;;;;;;;41.20;29.17;;;;;;;;;;5111870;28;20122;-68
2021/08/01 04:11:32;;;;;;;43.90;29.70;;;;;;;;;;5078547;28;20277;-68
2021/08/01 04:13:59;;;;;;;48.88;30.23;;;;;;;;;;5110906;28;20068;-68
2021/08/01 04:16:25;;;;;;;48.03;31.48;;;;;;;;;;5103222;28;20058;-68
2021/08/01 04:18:52;;;;;;;46.88;31.15;;;;;;;;;;5107152;28;20054;-68
2021/08/01 04:21:18;;;;;;;41.33;30.60;;;;;;;;;;5104859;28;20551;-68
2021/08/01 04:23:44;;;;;;;53.97;32.50;;;;;;;;;;5101358;28;20068;-68
2021/08/01 04:26:10;;;;;;;53.33;32.38;;;;;;;;;;5107818;28;20142;-68
2021/08/01 04:28:37;;;;;;;54.22;31.67;;;;;;;;;;5080330;28;20542;-68
2021/08/01 04:31:03;;;;;;;47.60;29.67;;;;;;;;;;5105957;28;20044;-68
2021/08/01 04:33:30;;;;;;;52.00;31.55;;;;;;;;;;5104650;28;20129;-68
2021/08/01 04:35:56;;;;;;;46.03;31.90;;;;;;;;;;5107571;28;20134;-68
2021/08/01 04:38:22;;;;;;;43.63;29.80;;;;;;;;;;5105702;28;20110;-68
2021/08/01 04:40:48;;;;;;;45.90;29.45;;;;;;;;;;5115929;28;21807;-68
2021/08/01 04:43:14;;;;;;;45.35;30.50;;;;;;;;;;5107656;28;20373;-68
2021/08/01 04:45:40;;;;;;;56.65;31.77;;;;;;;;;;5103496;28;20035;-68
2021/08/01 04:48:07;;;;;;;43.47;29.63;;;;;;;;;;5104612;28;20028;-68
2021/08/01 04:50:33;;;;;;;39.40;28.58;;;;;;;;;;5109360;28;20040;-68
2021/08/01 04:53:03;;;;;;;43.95;30.13;;;;;;;;;;5103605;28;20039;-68
2021/08/01 04:55:30;;;;;;;46.45;29.55;;;;;;;;;;5110658;28;20041;-68
2021/08/01 04:57:57;;;;;;;40.60;28.95;;;;;;;;;;5108372;28;20032;-68
2021/08/01 05:00:23;;;;;;;35.90;27.42;;;;;;;;;;5107472;28;20080;-68
2021/08/01 05:02:49;;;;;;;49.78;29.98;;;;;;;;;;5110039;27;20460;-68
2021/08/01 05:05:15;;;;;;;42.47;27.60;;;;;;;;;;5111048;27;20045;-68
2021/08/01 05:07:41;;;;;;;39.03;27.17;;;;;;;;;;5114515;27;20035;-68
2021/08/01 05:10:08;;;;;;;41.38;28.27;;;;;;;;;;5109990;27;20475;-68
2021/08/01 05:12:34;;;;;;;47.53;29.60;;;;;;;;;;5113079;27;20449;-68
2021/08/01 05:15:00;;;;;;;38.10;26.40;;;;;;;;;;5114362;27;20109;-68
2021/08/01 05:17:28;;;;;;;37.53;27.13;;;;;;;;;;5112682;27;20051;-68
2021/08/01 05:19:54;;;;;;;37.85;26.33;;;;;;;;;;5090060;28;20073;-68
2021/08/01 05:22:20;;;;;;;44.20;27.08;;;;;;;;;;5109968;27;20039;-68
2021/08/01 05:24:46;;;;;;;46.80;28.48;;;;;;;;;;5105891;27;20488;-69
2021/08/01 05:27:12;;;;;;;59.67;30.83;;;;;;;;;;5099346;27;20474;-70
2021/08/01 05:29:39;;;;;;;50.67;29.33;;;;;;;;;;5100934;27;20081;-70
2021/08/01 05:32:05;;;;;;;52.90;29.00;;;;;;;;;;5121447;27;20122;-70
2021/08/01 05:34:34;;;;;;;41.50;26.85;;;;;;;;;;5107421;27;20032;-70
2021/08/01 05:37:00;;;;;;;42.92;27.52;;;;;;;;;;5111240;27;20126;-70
2021/08/01 05:39:27;;;;;;;49.40;28.02;;;;;;;;;;5111829;27;20035;-70
2021/08/01 05:41:54;;;;;;;41.97;26.98;;;;;;;;;;5108303;27;20437;-70
2021/08/01 05:44:20;;;;;;;46.03;26.65;;;;;;;;;;5105749;27;20035;-70
2021/08/01 05:46:46;;;;;;;33.83;24.42;;;;;;;;;;5095090;28;20110;-70
2021/08/01 05:49:12;;;;;;;36.15;26.50;;;;;;;;;;5117530;27;20059;-71
2021/08/01 05:51:39;;;;;;;47.22;26.85;;;;;;;;;;5106717;27;20053;-71
2021/08/01 05:54:06;;;;;;;39.05;24.65;;;;;;;;;;5115771;27;20063;-71
2021/08/01 05:56:32;;;;;;;37.95;24.80;;;;;;;;;;5101077;27;20040;-70
2021/08/01 05:58:59;;;;;;;50.00;26.48;;;;;;;;;;5080453;27;20062;-70
2021/08/01 06:01:25;;;;;;;38.05;23.77;;;;;;;;;;5108448;27;20502;-70
2021/08/01 06:03:51;;;;;;;40.10;24.88;;;;;;;;;;5111913;27;20123;-70
2021/08/01 06:06:18;;;;;;;35.88;23.75;;;;;;;;;;5107159;27;20035;-70
2021/08/01 06:08:45;;;;;;;37.08;23.08;;;;;;;;;;5105314;27;20036;-70
2021/08/01 06:11:14;;;;;;;35.85;23.88;;;;;;;;;;5108720;27;20028;-70
2021/08/01 06:13:40;;;;;;;32.05;23.20;;;;;;;;;;5110054;27;20170;-70
2021/08/01 06:16:07;;;;;;;40.22;23.98;;;;;;;;;;5090614;27;20038;-70
2021/08/01 06:18:34;;;;;;;53.25;27.00;;;;;;;;;;5111735;27;20046;-70
2021/08/01 06:21:04;;;;;;;42.80;26.00;;;;;;;;;;5108745;27;20064;-70
2021/08/01 06:23:39;;;;;;;38.50;25.02;;;;;;;;;;5108838;27;20050;-70
2021/08/01 06:26:05;;;;;;;57.95;28.15;;;;;;;;;;5109534;27;20089;-70
2021/08/01 06:28:31;;;;;;;32.78;23.73;;;;;;;;;;5113073;27;20039;-70
2021/08/01 06:31:00;;;;;;;40.88;24.67;;;;;;;;;;5117292;27;20106;-70
2021/08/01 06:33:26;;;;;;;50.05;26.27;;;;;;;;;;5099172;27;20040;-70
2021/08/01 06:35:52;;;;;;;44.67;25.95;;;;;;;;;;5106724;27;20039;-70
2021/08/01 06:38:19;;;;;;;93.72;31.10;;;;;;;;;;5106604;27;20031;-69
2021/08/01 06:40:45;;;;;;;64.32;31.10;;;;;;;;;;5106272;27;20044;-69
2021/08/01 06:43:11;;;;;;;78.22;32.45;;;;;;;;;;5100457;27;20028;-69
2021/08/01 06:45:37;;;;;;;52.50;28.58;;;;;;;;;;5104802;27;20064;-69
2021/08/01 06:48:05;;;;;;;44.45;25.83;;;;;;;;;;5097393;27;20074;-69
2021/08/01 06:50:32;;;;;;;43.90;26.98;;;;;;;;;;5105121;27;20043;-69
2021/08/01 06:52:58;;;;;;;65.32;30.70;;;;;;;;;;5102400;27;20047;-68
2021/08/01 06:55:24;;;;;;;61.50;31.25;;;;;;;;;;5106536;27;20063;-68
2021/08/01 06:57:50;;;;;;;70.65;32.00;;;;;;;;;;5103636;27;20470;-68
2021/08/01 07:00:20;;;;;;;70.10;31.67;;;;;;;;;;5114090;27;20484;-68
2021/08/01 07:02:56;;;;;;;58.65;29.67;;;;;;;;;;5092808;27;20075;-68
2021/08/01 07:05:22;;;;;;;55.85;30.63;;;;;;;;;;5109139;27;20039;-68
2021/08/01 07:07:49;;;;;;;44.22;27.90;;;;;;;;;;5104195;27;20068;-68
2021/08/01 07:10:15;;;;;;;42.38;27.15;;;;;;;;;;5114874;27;20019;-68
2021/08/01 07:12:41;;;;;;;53.20;30.02;;;;;;;;;;5101321;27;20582;-68
2021/08/01 07:15:11;;;;;;;48.78;29.17;;;;;;;;;;5107869;27;20105;-68
2021/08/01 07:17:38;;;;;;;39.92;26.52;;;;;;;;;;5109590;27;20557;-68
2021/08/01 07:20:05;;;;;;;73.47;33.53;;;;;;;;;;5101537;27;20048;-68
2021/08/01 07:22:31;;;;;;;56.05;30.63;;;;;;;;;;5111386;27;20147;-68
2021/08/01 07:24:57;;;;;;;46.03;28.90;;;;;;;;;;5100165;27;20045;-68
2021/08/01 07:27:23;;;;;;;52.53;30.80;;;;;;;;;;5109520;27;20068;-68
2021/08/01 07:29:50;;;;;;;61.70;32.15;;;;;;;;;;5103701;27;20482;-68
2021/08/01 07:32:16;;;;;;;49.35;30.98;;;;;;;;;;5102356;27;20487;-68
2021/08/01 07:34:42;;;;;;;60.53;33.13;;;;;;;;;;5101375;27;20036;-68
2021/08/01 07:37:08;;;;;;;57.08;32.83;;;;;;;;;;5104049;27;20036;-68
2021/08/01 07:39:34;;;;;;;115.30;42.22;;;;;;;;;;5102086;27;20554;-68
2021/08/01 07:42:00;;;;;;;92.97;38.60;;;;;;;;;;5101288;27;20093;-68
2021/08/01 07:44:29;;;;;;;115.40;41.28;;;;;;;;;;5101205;27;20047;-68
2021/08/01 07:46:55;;;;;;;64.03;34.65;;;;;;;;;;5100216;27;20067;-68
2021/08/01 07:49:22;;;;;;;116.43;41.20;;;;;;;;;;5102346;27;20043;-68
2021/08/01 07:51:49;;;;;;;66.45;33.53;;;;;;;;;;5096569;28;20059;-69
2021/08/01 07:54:15;;;;;;;50.67;29.92;;;;;;;;;;5114870;27;20402;-69
2021/08/01 07:56:41;;;;;;;70.85;32.85;;;;;;;;;;5102065;27;20119;-66
2021/08/01 07:59:09;;;;;;;40.38;27.58;;;;;;;;;;5106448;27;20073;-66
2021/08/01 08:01:37;;;;;;;53.70;30.00;;;;;;;;;;5094955;28;20044;-66
2021/08/01 08:04:03;;;;;;;42.72;25.90;;;;;;;;;;5103100;27;20059;-69
2021/08/01 08:06:34;;;;;;;34.13;24.83;;;;;;;;;;5097039;28;20071;-69
2021/08/01 08:09:14;;;;;;;44.85;24.88;;;;;;;;;;5104475;27;20530;-68
2021/08/01 08:11:52;;;;;;;44.17;26.33;;;;;;;;;;5079053;28;20466;-67
2021/08/01 08:14:31;;;;;;;50.95;26.00;;;;;;;;;;5111254;28;20136;-67
2021/08/01 08:17:10;;;;;;;37.05;22.90;;;;;;;;;;5104523;28;20040;-66
2021/08/01 08:19:50;;;;;;;39.38;26.10;;;;;;;;;;5106906;28;20119;-67
2021/08/01 08:22:23;;;;;;;56.05;28.02;;;;;;;;;;5099675;28;20111;-67
2021/08/01 08:24:55;;;;;;;14.82;12.52;;;;;;;;;;5106799;28;20055;-67
2021/08/01 08:27:34;;;;;;;10.93;7.40;;;;;;;;;;5103079;28;20114;-67
2021/08/01 08:30:14;;;;;;;6.13;4.43;;;;;;;;;;5108377;28;20457;-66
2021/08/01 08:32:54;;;;;;;5.20;4.03;;;;;;;;;;5096111;28;20040;-66
2021/08/01 08:35:32;;;;;;;4.93;2.90;;;;;;;;;;5107172;28;20035;-66
2021/08/01 08:38:12;;;;;;;4.95;2.90;;;;;;;;;;5101797;27;20421;-66
2021/08/01 08:40:52;;;;;;;1.90;1.70;;;;;;;;;;5108093;27;20102;-66
2021/08/01 08:43:31;;;;;;;4.50;1.90;;;;;;;;;;5107889;27;20040;-66
2021/08/01 08:46:12;;;;;;;1.95;1.38;;;;;;;;;;5118936;27;20043;-66
2021/08/01 08:48:51;;;;;;;2.20;1.80;;;;;;;;;;5083595;27;20040;-66
2021/08/01 08:51:32;;;;;;;4.88;1.77;;;;;;;;;;5110173;27;20131;-66
2021/08/01 08:54:14;;;;;;;9.48;2.58;;;;;;;;;;5107964;27;20020;-66
2021/08/01 08:56:54;;;;;;;5.72;2.70;;;;;;;;;;5113150;27;20479;-66
2021/08/01 08:59:33;;;;;;;3.47;2.42;;;;;;;;;;5117559;27;20047;-63
2021/08/01 09:02:15;;;;;;;2.15;1.88;;;;;;;;;;5113938;27;20035;-64
2021/08/01 09:04:55;;;;;;;3.97;2.00;;;;;;;;;;5107808;27;20342;-64
2021/08/01 09:07:34;;;;;;;2.50;1.40;;;;;;;;;;5104799;27;20044;-64
2021/08/01 09:10:15;;;;;;;5.38;1.83;;;;;;;;;;5117664;27;20047;-64
2021/08/01 09:12:55;;;;;;;4.22;1.75;;;;;;;;;;5103037;27;20035;-64
2021/08/01 09:15:33;;;;;;;3.17;1.75;;;;;;;;;;5112373;27;20269;-64
2021/08/01 09:18:11;;;;;;;2.83;1.42;;;;;;;;;;5107636;27;20051;-64
2021/08/01 09:20:50;;;;;;;2.20;0.90;;;;;;;;;;5112858;27;20047;-64
2021/08/01 09:23:26;;;;;;;3.55;1.25;;;;;;;;;;5107852;27;20035;-64
2021/08/01 09:26:07;;;;;;;3.05;1.23;;;;;;;;;;5114776;27;20078;-64
2021/08/01 09:29:03;;;;;;;3.72;1.33;;;;;;;;;;5101011;27;20443;-65
2021/08/01 09:31:41;;;;;;;4.13;1.98;;;;;;;;;;5110878;27;20062;-65
2021/08/01 09:34:29;;;;;;;2.83;2.00;;;;;;;;;;5108246;27;20130;-65
2021/08/01 09:37:08;;;;;;;3.25;1.92;;;;;;;;;;5115575;27;20049;-65
2021/08/01 09:39:45;;;;;;;2.97;1.90;;;;;;;;;;5103194;27;20122;-65
2021/08/01 09:42:20;;;;;;;2.97;1.88;;;;;;;;;;5108718;27;20045;-65
2021/08/01 09:45:14;;;;;;;3.45;1.20;;;;;;;;;;5104669;27;20035;-65
2021/08/01 09:47:53;;;;;;;2.58;1.42;;;;;;;;;;5113651;27;20367;-65
2021/08/01 09:50:32;;;;;;;2.25;1.52;;;;;;;;;;5110328;27;20471;-65
2021/08/01 09:53:13;;;;;;;3.15;2.10;;;;;;;;;;5112839;27;20036;-65
2021/08/01 09:55:39;;;;;;;2.85;1.67;;;;;;;;;;5104207;27;20084;-65
2021/08/01 09:58:05;;;;;;;5.60;2.60;;;;;;;;;;5119755;27;20038;-66
2021/08/01 10:00:31;;;;;;;3.80;2.33;;;;;;;;;;5102663;27;20394;-65
2021/08/01 10:03:02;;;;;;;2.55;1.90;;;;;;;;;;5110697;27;20050;-65
2021/08/01 10:05:28;;;;;;;3.85;2.03;;;;;;;;;;5109618;27;20069;-65
2021/08/01 10:07:54;;;;;;;1.92;1.70;;;;;;;;;;5115876;27;20039;-65
2021/08/01 10:10:21;;;;;;;2.60;1.85;;;;;;;;;;5107123;27;20061;-66
2021/08/01 10:12:48;;;;;;;2.78;2.30;;;;;;;;;;5115384;27;20043;-66
2021/08/01 10:15:15;;;;;;;3.65;2.30;;;;;;;;;;5088205;27;20031;-66
2021/08/01 10:17:41;;;;;;;2.17;1.92;;;;;;;;;;5107578;27;20274;-65
2021/08/01 10:20:08;;;;;;;2.40;2.20;;;;;;;;;;5108040;27;20039;-65
2021/08/01 10:22:36;;;;;;;3.20;2.90;;;;;;;;;;5098341;27;20146;-65
2021/08/01 10:25:06;;;;;;;2.22;2.05;;;;;;;;;;5118551;27;20042;-66
2021/08/01 10:27:33;;;;;;;3.72;2.58;;;;;;;;;;5103301;27;20049;-66
2021/08/01 10:30:00;;;;;;;2.42;2.22;;;;;;;;;;5109696;27;20047;-66
2021/08/01 10:32:27;;;;;;;5.07;3.03;;;;;;;;;;5108286;27;20035;-66
2021/08/01 10:35:01;;;;;;;2.63;2.42;;;;;;;;;;5119105;27;20469;-66
2021/08/01 10:37:31;;;;;;;2.85;2.42;;;;;;;;;;5107332;27;20042;-66
2021/08/01 10:39:58;;;;;;;3.20;2.45;;;;;;;;;;5108860;27;20054;-66
2021/08/01 10:42:27;;;;;;;3.95;3.20;;;;;;;;;;5112414;27;20454;-66
2021/08/01 10:44:53;;;;;;;4.60;3.45;;;;;;;;;;5109084;27;20114;-66
2021/08/01 10:47:20;;;;;;;4.03;3.63;;;;;;;;;;5104513;27;20035;-65
2021/08/01 10:49:47;;;;;;;4.10;3.40;;;;;;;;;;5117127;27;20044;-65
2021/08/01 10:52:17;;;;;;;4.80;4.32;;;;;;;;;;5108116;27;20432;-65
2021/08/01 10:54:53;;;;;;;4.93;4.28;;;;;;;;;;5109503;27;20050;-65
2021/08/01 10:57:20;;;;;;;5.18;3.78;;;;;;;;;;5103901;27;20027;-65
2021/08/01 10:59:46;;;;;;;4.45;4.05;;;;;;;;;;5114636;27;20077;-66
2021/08/01 11:02:16;;;;;;;5.25;4.00;;;;;;;;;;5102685;27;20155;-67
2021/08/01 11:04:45;;;;;;;5.57;4.10;;;;;;;;;;5108082;27;20050;-67
2021/08/01 11:07:11;;;;;;;4.70;4.03;;;;;;;;;;5105421;27;20047;-67
2021/08/01 11:09:43;;;;;;;6.45;3.85;;;;;;;;;;5111957;27;20042;-67
2021/08/01 11:12:34;;;;;;;7.22;4.03;;;;;;;;;;5108443;27;20058;-67
2021/08/01 11:15:09;;;;;;;4.55;4.15;;;;;;;;;;5110661;27;20039;-67
2021/08/01 11:17:50;;;;;;;5.32;4.80;;;;;;;;;;5104323;27;20185;-67
2021/08/01 11:20:23;;;;;;;7.28;5.65;;;;;;;;;;5108593;27;20397;-67
2021/08/01 11:23:01;;;;;;;5.93;4.80;;;;;;;;;;5097186;27;20051;-67
2021/08/01 11:25:42;;;;;;;5.57;4.97;;;;;;;;;;5102667;27;20298;-66
2021/08/01 11:28:22;;;;;;;6.30;5.70;;;;;;;;;;5100133;27;20436;-66
2021/08/01 11:31:01;;;;;;;5.65;5.05;;;;;;;;;;5107527;27;20522;-66
2021/08/01 11:33:44;;;;;;;4.43;4.03;;;;;;;;;;5091693;28;20071;-66
2021/08/01 11:36:34;;;;;;;7.53;5.45;;;;;;;;;;5109539;27;20042;-66
2021/08/01 11:39:11;;;;;;;5.00;4.50;;;;;;;;;;5099701;27;20051;-66
2021/08/01 11:41:50;;;;;;;5.15;4.18;;;;;;;;;;5107400;27;20116;-66
2021/08/01 11:44:28;;;;;;;4.32;3.92;;;;;;;;;;5098535;27;20051;-66
2021/08/01 11:47:09;;;;;;;7.53;4.80;;;;;;;;;;5096871;27;20036;-66
2021/08/01 11:49:48;;;;;;;5.63;5.07;;;;;;;;;;5096550;28;20043;-66
2021/08/01 11:52:21;;;;;;;4.10;3.60;;;;;;;;;;5105670;27;20418;-66
2021/08/01 11:54:56;;;;;;;5.60;4.82;;;;;;;;;;5098317;28;20039;-67
2021/08/01 11:57:30;;;;;;;6.03;4.47;;;;;;;;;;5088682;28;20095;-67
2021/08/01 12:00:04;;;;;;;6.55;5.28;;;;;;;;;;5107645;28;20388;-67
2021/08/01 12:02:34;;;;;;;8.38;5.40;;;;;;;;;;5095750;27;20143;-68
2021/08/01 12:05:16;;;;;;;7.80;5.18;;;;;;;;;;5108018;28;20054;-67
2021/08/01 12:07:52;;;;;;;9.82;5.78;;;;;;;;;;5092233;28;20028;-67
2021/08/01 12:10:28;;;;;;;5.63;4.53;;;;;;;;;;5113622;28;20474;-67
2021/08/01 12:13:11;;;;;;;6.97;5.68;;;;;;;;;;5095531;28;20492;-67
2021/08/01 12:15:45;;;;;;;8.77;5.20;;;;;;;;;;5102338;28;20036;-67
2021/08/01 12:18:28;;;;;;;6.55;5.63;;;;;;;;;;5103470;28;20150;-67
2021/08/01 12:21:02;;;;;;;6.15;5.53;;;;;;;;;;5117273;28;20047;-67
2021/08/01 12:23:36;;;;;;;5.72;4.88;;;;;;;;;;5111175;28;20468;-67
2021/08/01 12:26:03;;;;;;;4.57;4.20;;;;;;;;;;5092664;28;20032;-67
2021/08/01 12:28:41;;;;;;;5.88;4.72;;;;;;;;;;5114114;28;20050;-67
2021/08/01 12:31:15;;;;;;;5.07;4.68;;;;;;;;;;5099457;28;20040;-67
2021/08/01 12:33:48;;;;;;;3.83;3.30;;;;;;;;;;5110428;28;20043;-68
2021/08/01 12:36:31;;;;;;;3.53;3.22;;;;;;;;;;5091470;28;20488;-68
2021/08/01 12:39:08;;;;;;;2.55;2.35;;;;;;;;;;5110495;28;20044;-68
2021/08/01 12:41:42;;;;;;;3.08;2.78;;;;;;;;;;5107669;28;20500;-68
2021/08/01 12:44:14;;;;;;;;;;;;;;;;;;5107317;28;20042;-68
2021/08/01 12:46:48;;;;;;;3.75;3.33;;;;;;;;;;5105142;28;19920;-67
2021/08/01 12:49:25;;;;;;;4.63;2.25;;;;;;;;;;5098513;28;20053;-65
2021/08/01 12:52:04;;;;;;;10.88;3.80;;;;;;;;;;5111756;28;20100;-66
2021/08/01 12:54:37;;;;;;;15.32;3.17;;;;;;;;;;5101523;28;20104;-66
2021/08/01 12:57:13;;;;;;;9.75;1.52;;;;;;;;;;5102433;28;20061;-67
2021/08/01 13:00:06;;;;;;;6.95;1.88;;;;;;;;;;5094183;28;20117;-67
2021/08/01 13:02:45;;;;;;;5.93;2.33;;;;;;;;;;5098183;28;20071;-67
2021/08/01 13:05:28;;;;;;;31.13;8.35;;;;;;;;;;5094619;28;20044;-67
2021/08/01 13:08:07;;;;;;;12.68;5.60;;;;;;;;;;5103045;28;20054;-66
2021/08/01 13:10:51;;;;;;;4.70;3.75;;;;;;;;;;5098985;28;20072;-66
2021/08/01 13:13:29;;;;;;;8.13;5.30;;;;;;;;;;5105728;28;20050;-66
2021/08/01 13:16:09;;;;;;;5.57;3.85;;;;;;;;;;5081049;28;20053;-66
2021/08/01 13:18:47;;;;;;;5.85;4.03;;;;;;;;;;5103494;28;20038;-66
2021/08/01 13:21:21;;;;;;;10.15;6.38;;;;;;;;;;5104070;28;20063;-66
2021/08/01 13:23:48;;;;;;;17.35;7.32;;;;;;;;;;5098303;28;20036;-66
2021/08/01 13:26:20;;;;;;;11.90;5.47;;;;;;;;;;5101483;27;20057;-66
2021/08/01 13:28:46;;;;;;;3.25;2.95;;;;;;;;;;5099861;27;20047;-66
2021/08/01 13:31:13;;;;;;;3.97;3.58;;;;;;;;;;5111380;27;20032;-66
2021/08/01 13:33:40;;;;;;;4.28;2.60;;;;;;;;;;5100969;27;20093;-67
2021/08/01 13:36:06;;;;;;;3.97;2.22;;;;;;;;;;5107765;27;20471;-66
2021/08/01 13:38:32;;;;;;;3.47;2.20;;;;;;;;;;5108115;27;20408;-66
2021/08/01 13:40:59;;;;;;;2.50;2.08;;;;;;;;;;5105839;27;20202;-66
2021/08/01 13:43:25;;;;;;;4.05;1.80;;;;;;;;;;5104879;27;20489;-66
2021/08/01 13:45:51;;;;;;;3.22;1.20;;;;;;;;;;5108502;27;20074;-66
2021/08/01 13:48:18;;;;;;;3.10;1.90;;;;;;;;;;5104807;27;20039;-66
2021/08/01 13:50:44;;;;;;;2.22;1.58;;;;;;;;;;5100929;27;20066;-66
2021/08/01 13:53:10;;;;;;;2.38;1.98;;;;;;;;;;5109246;27;20036;-66
2021/08/01 13:55:36;;;;;;;3.17;2.88;;;;;;;;;;5096624;27;20035;-66
2021/08/01 13:58:06;;;;;;;6.22;3.05;;;;;;;;;;5109020;27;20044;-66
2021/08/01 14:00:33;;;;;;;4.47;2.95;;;;;;;;;;5110253;27;20077;-66
2021/08/01 14:03:00;;;;;;;4.50;2.78;;;;;;;;;;5109502;27;20031;-67
2021/08/01 14:05:28;;;;;;;3.85;1.70;;;;;;;;;;5093696;27;20047;-67
2021/08/01 14:07:54;;;;;;;2.65;1.85;;;;;;;;;;5105527;27;20027;-67
2021/08/01 14:10:21;;;;;;;2.72;2.20;;;;;;;;;;5108742;27;20036;-67
2021/08/01 14:12:47;;;;;;;2.97;2.10;;;;;;;;;;5095820;28;20450;-67
2021/08/01 14:15:13;;;;;;;3.47;2.28;;;;;;;;;;5106214;27;20118;-67
2021/08/01 14:17:40;;;;;;;3.63;2.08;;;;;;;;;;5105790;27;20035;-67
2021/08/01 14:20:06;;;;;;;3.30;1.90;;;;;;;;;;5107741;27;20065;-68
2021/08/01 14:22:33;;;;;;;5.10;2.08;;;;;;;;;;5102000;27;20409;-68
2021/08/01 14:24:59;;;;;;;2.40;1.88;;;;;;;;;;5116072;27;20040;-68
2021/08/01 14:27:26;;;;;;;5.50;2.45;;;;;;;;;;5106098;27;20371;-68
2021/08/01 14:29:56;;;;;;;5.85;2.75;;;;;;;;;;5111875;27;20063;-68
2021/08/01 14:32:24;;;;;;;4.32;2.05;;;;;;;;;;5110170;27;20079;-68
2021/08/01 14:34:50;;;;;;;4.80;2.35;;;;;;;;;;5108791;27;20032;-68
2021/08/01 14:37:16;;;;;;;2.60;1.45;;;;;;;;;;5107571;27;20105;-68
2021/08/01 14:39:43;;;;;;;3.08;1.30;;;;;;;;;;5109393;27;20104;-68
2021/08/01 14:42:14;;;;;;;5.15;1.40;;;;;;;;;;5103743;27;20061;-68
2021/08/01 14:44:41;;;;;;;4.25;0.88;;;;;;;;;;5103470;27;20629;-68
2021/08/01 14:47:29;;;;;;;3.63;0.90;;;;;;;;;;5099632;27;20032;-68